sensor_id;sensor_type;location;lat;lon;timestamp;pressure;altitude;pressure_sealevel;temperature
28305;BMP280;15569;42.652;23.040;2023-07-31T00:01:43;92797.50;;;24.49
28305;BMP280;15569;42.652;23.040;2023-07-31T00:04:08;92787.09;;;24.45
28305;BMP280;15569;42.652;23.040;2023-07-31T00:06:33;92787.84;;;24.42
28305;BMP280;15569;42.652;23.040;2023-07-31T00:08:59;92779.50;;;24.40
28305;BMP280;15569;42.652;23.040;2023-07-31T00:11:24;92773.22;;;24.43
28305;BMP280;15569;42.652;23.040;2023-07-31T00:13:50;92766.94;;;24.49
28305;BMP280;15569;42.652;23.040;2023-07-31T00:16:15;92762.78;;;24.48
28305;BMP280;15569;42.652;23.040;2023-07-31T00:18:41;92759.25;;;24.49
28305;BMP280;15569;42.652;23.040;2023-07-31T00:21:06;92758.59;;;24.51
28305;BMP280;15569;42.652;23.040;2023-07-31T00:23:31;92750.91;;;24.51
28305;BMP280;15569;42.652;23.040;2023-07-31T00:25:57;92740.50;;;24.50
28305;BMP280;15569;42.652;23.040;2023-07-31T00:28:22;92750.25;;;24.49
28305;BMP280;15569;42.652;23.040;2023-07-31T00:30:48;92741.94;;;24.47
28305;BMP280;15569;42.652;23.040;2023-07-31T00:33:13;92746.16;;;24.42
28305;BMP280;15569;42.652;23.040;2023-07-31T00:35:38;92744.78;;;24.41
28305;BMP280;15569;42.652;23.040;2023-07-31T00:38:04;92746.13;;;24.44
28305;BMP280;15569;42.652;23.040;2023-07-31T00:40:29;92742.69;;;24.41
28305;BMP280;15569;42.652;23.040;2023-07-31T00:42:54;92739.88;;;24.43
28305;BMP280;15569;42.652;23.040;2023-07-31T00:45:21;92740.53;;;24.46
28305;BMP280;15569;42.652;23.040;2023-07-31T00:47:48;92731.56;;;24.39
28305;BMP280;15569;42.652;23.040;2023-07-31T00:50:14;92721.88;;;24.36
28305;BMP280;15569;42.652;23.040;2023-07-31T00:52:39;92728.81;;;24.41
28305;BMP280;15569;42.652;23.040;2023-07-31T00:55:05;92741.94;;;24.47
28305;BMP280;15569;42.652;23.040;2023-07-31T00:57:32;92739.88;;;24.45
28305;BMP280;15569;42.652;23.040;2023-07-31T00:59:58;92741.19;;;24.52
28305;BMP280;15569;42.652;23.040;2023-07-31T01:02:24;92736.31;;;24.53
28305;BMP280;15569;42.652;23.040;2023-07-31T01:04:49;92735.59;;;24.54
28305;BMP280;15569;42.652;23.040;2023-07-31T01:07:27;92733.53;;;24.55
28305;BMP280;15569;42.652;23.040;2023-07-31T01:10:23;92727.31;;;24.50
28305;BMP280;15569;42.652;23.040;2023-07-31T01:12:51;92734.22;;;24.55
28305;BMP280;15569;42.652;23.040;2023-07-31T01:15:18;92729.47;;;24.44
28305;BMP280;15569;42.652;23.040;2023-07-31T01:17:44;92739.09;;;24.53
28305;BMP280;15569;42.652;23.040;2023-07-31T01:25:56;92739.09;;;24.55
28305;BMP280;15569;42.652;23.040;2023-07-31T01:28:33;92737.72;;;24.52
28305;BMP280;15569;42.652;23.040;2023-07-31T01:31:06;92721.06;;;24.50
28305;BMP280;15569;42.652;23.040;2023-07-31T01:33:32;92736.31;;;24.55
28305;BMP280;15569;42.652;23.040;2023-07-31T01:35:58;92728.66;;;24.55
28305;BMP280;15569;42.652;23.040;2023-07-31T01:38:24;92734.94;;;24.52
28305;BMP280;15569;42.652;23.040;2023-07-31T01:40:52;92748.13;;;24.53
28305;BMP280;15569;42.652;23.040;2023-07-31T01:43:18;92734.94;;;24.52
28305;BMP280;15569;42.652;23.040;2023-07-31T01:45:44;92724.59;;;24.44
28305;BMP280;15569;42.652;23.040;2023-07-31T01:48:09;92735.00;;;24.48
28305;BMP280;15569;42.652;23.040;2023-07-31T01:50:34;92734.25;;;24.49
28305;BMP280;15569;42.652;23.040;2023-07-31T01:53:00;92731.59;;;24.41
28305;BMP280;15569;42.652;23.040;2023-07-31T01:55:25;92730.88;;;24.41
28305;BMP280;15569;42.652;23.040;2023-07-31T01:57:51;92740.56;;;24.48
28305;BMP280;15569;42.652;23.040;2023-07-31T02:00:17;92740.56;;;24.44
28305;BMP280;15569;42.652;23.040;2023-07-31T02:02:43;92730.13;;;24.46
28305;BMP280;15569;42.652;23.040;2023-07-31T02:05:08;92732.28;;;24.42
28305;BMP280;15569;42.652;23.040;2023-07-31T02:07:33;92743.31;;;24.46
28305;BMP280;15569;42.652;23.040;2023-07-31T02:09:59;92741.25;;;24.46
28305;BMP280;15569;42.652;23.040;2023-07-31T02:12:24;92741.34;;;24.38
28305;BMP280;15569;42.652;23.040;2023-07-31T02:14:49;92734.41;;;24.35
28305;BMP280;15569;42.652;23.040;2023-07-31T02:17:15;92736.53;;;24.30
28305;BMP280;15569;42.652;23.040;2023-07-31T02:19:40;92737.28;;;24.27
28305;BMP280;15569;42.652;23.040;2023-07-31T02:22:06;92736.59;;;24.22
28305;BMP280;15569;42.652;23.040;2023-07-31T02:24:31;92736.72;;;24.08
28305;BMP280;15569;42.652;23.040;2023-07-31T02:26:57;92745.72;;;24.07
28305;BMP280;15569;42.652;23.040;2023-07-31T02:29:22;92736.72;;;24.04
28305;BMP280;15569;42.652;23.040;2023-07-31T02:31:48;92740.88;;;24.03
28305;BMP280;15569;42.652;23.040;2023-07-31T02:34:13;92738.81;;;24.04
28305;BMP280;15569;42.652;23.040;2023-07-31T02:36:39;92756.22;;;24.02
28305;BMP280;15569;42.652;23.040;2023-07-31T02:39:04;92751.38;;;23.99
28305;BMP280;15569;42.652;23.040;2023-07-31T02:41:30;92759.72;;;23.95
28305;BMP280;15569;42.652;23.040;2023-07-31T02:43:55;92756.28;;;23.90
28305;BMP280;15569;42.652;23.040;2023-07-31T02:46:21;92754.91;;;23.91
28305;BMP280;15569;42.652;23.040;2023-07-31T02:48:49;92756.25;;;23.94
28305;BMP280;15569;42.652;23.040;2023-07-31T02:51:15;92752.09;;;23.93
28305;BMP280;15569;42.652;23.040;2023-07-31T02:53:40;92762.47;;;23.97
28305;BMP280;15569;42.652;23.040;2023-07-31T02:56:05;92752.06;;;23.99
28305;BMP280;15569;42.652;23.040;2023-07-31T02:58:31;92753.44;;;24.02
28305;BMP280;15569;42.652;23.040;2023-07-31T03:00:58;92748.53;;;24.05
28305;BMP280;15569;42.652;23.040;2023-07-31T03:03:23;92746.44;;;24.03
28305;BMP280;15569;42.652;23.040;2023-07-31T03:05:49;92750.66;;;24.02
28305;BMP280;15569;42.652;23.040;2023-07-31T03:08:14;92740.94;;;23.97
28305;BMP280;15569;42.652;23.040;2023-07-31T03:10:40;92743.69;;;24.01
28305;BMP280;15569;42.652;23.040;2023-07-31T03:13:06;92747.88;;;24.02
28305;BMP280;15569;42.652;23.040;2023-07-31T03:15:31;92751.34;;;24.03
28305;BMP280;15569;42.652;23.040;2023-07-31T03:17:56;92758.34;;;23.96
28305;BMP280;15569;42.652;23.040;2023-07-31T03:20:22;92761.81;;;23.92
28305;BMP280;15569;42.652;23.040;2023-07-31T03:22:47;92753.44;;;23.98
28305;BMP280;15569;42.652;23.040;2023-07-31T03:25:13;92759.00;;;23.96
28305;BMP280;15569;42.652;23.040;2023-07-31T03:27:39;92752.81;;;23.86
28305;BMP280;15569;42.652;23.040;2023-07-31T03:30:05;92753.56;;;23.80
28305;BMP280;15569;42.652;23.040;2023-07-31T03:32:31;92760.41;;;23.93
28305;BMP280;15569;42.652;23.040;2023-07-31T03:34:57;92762.53;;;23.87
28305;BMP280;15569;42.652;23.040;2023-07-31T03:37:22;92773.00;;;23.84
28305;BMP280;15569;42.652;23.040;2023-07-31T03:39:48;92771.56;;;23.87
28305;BMP280;15569;42.652;23.040;2023-07-31T03:42:13;92773.66;;;23.87
28305;BMP280;15569;42.652;23.040;2023-07-31T03:44:39;92786.91;;;23.76
28305;BMP280;15569;42.652;23.040;2023-07-31T03:47:05;92786.91;;;23.76
28305;BMP280;15569;42.652;23.040;2023-07-31T03:49:30;92793.13;;;23.79
28305;BMP280;15569;42.652;23.040;2023-07-31T03:51:56;92791.06;;;23.75
28305;BMP280;15569;42.652;23.040;2023-07-31T03:54:21;92791.75;;;23.76
28305;BMP280;15569;42.652;23.040;2023-07-31T03:56:46;92786.91;;;23.74
28305;BMP280;15569;42.652;23.040;2023-07-31T03:59:12;92787.63;;;23.75
28305;BMP280;15569;42.652;23.040;2023-07-31T04:01:37;92787.53;;;23.83
28305;BMP280;15569;42.652;23.040;2023-07-31T04:04:03;92795.19;;;23.88
28305;BMP280;15569;42.652;23.040;2023-07-31T04:06:28;92789.59;;;23.90
28305;BMP280;15569;42.652;23.040;2023-07-31T04:08:53;92791.66;;;23.90
28305;BMP280;15569;42.652;23.040;2023-07-31T04:11:19;92795.81;;;23.97
28305;BMP280;15569;42.652;23.040;2023-07-31T04:13:44;92797.84;;;24.00
28305;BMP280;15569;42.652;23.040;2023-07-31T04:16:09;92804.16;;;23.93
28305;BMP280;15569;42.652;23.040;2023-07-31T04:18:35;92810.41;;;23.93
28305;BMP280;15569;42.652;23.040;2023-07-31T04:21:00;92806.25;;;23.92
28305;BMP280;15569;42.652;23.040;2023-07-31T04:23:29;92814.53;;;23.98
28305;BMP280;15569;42.652;23.040;2023-07-31T04:25:54;92806.19;;;23.98
28305;BMP280;15569;42.652;23.040;2023-07-31T04:28:20;92809.66;;;24.01
28305;BMP280;15569;42.652;23.040;2023-07-31T04:30:45;92808.28;;;24.02
28305;BMP280;15569;42.652;23.040;2023-07-31T04:33:10;92796.44;;;24.03
28305;BMP280;15569;42.652;23.040;2023-07-31T04:35:36;92798.50;;;24.07
28305;BMP280;15569;42.652;23.040;2023-07-31T04:38:01;92798.47;;;24.11
28305;BMP280;15569;42.652;23.040;2023-07-31T04:40:27;92802.59;;;24.20
28305;BMP280;15569;42.652;23.040;2023-07-31T04:42:52;92804.63;;;24.25
28305;BMP280;15569;42.652;23.040;2023-07-31T04:45:18;92799.72;;;24.30
28305;BMP280;15569;42.652;23.040;2023-07-31T04:47:43;92805.97;;;24.35
28305;BMP280;15569;42.652;23.040;2023-07-31T04:50:08;92803.84;;;24.37
28305;BMP280;15569;42.652;23.040;2023-07-31T04:52:34;92800.41;;;24.35
28305;BMP280;15569;42.652;23.040;2023-07-31T04:54:59;92800.34;;;24.41
28305;BMP280;15569;42.652;23.040;2023-07-31T04:57:25;92803.72;;;24.53
28305;BMP280;15569;42.652;23.040;2023-07-31T04:59:50;92794.53;;;24.67
28305;BMP280;15569;42.652;23.040;2023-07-31T05:02:15;92787.56;;;24.70
28305;BMP280;15569;42.652;23.040;2023-07-31T05:04:41;92789.69;;;24.67
28305;BMP280;15569;42.652;23.040;2023-07-31T05:07:06;92800.78;;;24.71
28305;BMP280;15569;42.652;23.040;2023-07-31T05:09:32;92804.22;;;24.74
28305;BMP280;15569;42.652;23.040;2023-07-31T05:11:57;92802.44;;;24.40
28305;BMP280;15569;42.652;23.040;2023-07-31T05:14:22;92801.06;;;24.37
28305;BMP280;15569;42.652;23.040;2023-07-31T05:16:48;92798.88;;;24.52
28305;BMP280;15569;42.652;23.040;2023-07-31T05:19:13;92807.31;;;24.36
28305;BMP280;15569;42.652;23.040;2023-07-31T05:21:39;92805.97;;;24.30
28305;BMP280;15569;42.652;23.040;2023-07-31T05:24:05;92803.97;;;24.21
28305;BMP280;15569;42.652;23.040;2023-07-31T05:26:30;92804.69;;;24.15
28305;BMP280;15569;42.652;23.040;2023-07-31T05:28:56;92804.75;;;24.09
28305;BMP280;15569;42.652;23.040;2023-07-31T05:31:21;92815.75;;;24.23
28305;BMP280;15569;42.652;23.040;2023-07-31T05:33:47;92805.91;;;24.37
28305;BMP280;15569;42.652;23.040;2023-07-31T05:36:15;92807.91;;;24.50
28305;BMP280;15569;42.652;23.040;2023-07-31T05:38:40;92802.25;;;24.62
28305;BMP280;15569;42.652;23.040;2023-07-31T05:41:05;92812.00;;;24.59
28305;BMP280;15569;42.652;23.040;2023-07-31T05:43:31;92795.88;;;24.76
28305;BMP280;15569;42.652;23.040;2023-07-31T05:45:56;92804.09;;;24.84
28305;BMP280;15569;42.652;23.040;2023-07-31T05:48:22;92796.78;;;24.50
28305;BMP280;15569;42.652;23.040;2023-07-31T05:50:47;92812.09;;;24.47
28305;BMP280;15569;42.652;23.040;2023-07-31T05:53:12;92816.97;;;24.47
28305;BMP280;15569;42.652;23.040;2023-07-31T05:55:38;92816.91;;;24.53
28305;BMP280;15569;42.652;23.040;2023-07-31T05:58:03;92815.47;;;24.62
28305;BMP280;15569;42.652;23.040;2023-07-31T06:00:28;92816.09;;;24.68
28305;BMP280;15569;42.652;23.040;2023-07-31T06:02:54;92821.53;;;24.82
28305;BMP280;15569;42.652;23.040;2023-07-31T06:05:19;92825.81;;;24.67
28305;BMP280;15569;42.652;23.040;2023-07-31T06:07:45;92816.53;;;24.95
28305;BMP280;15569;42.652;23.040;2023-07-31T06:10:11;92816.97;;;24.43
28305;BMP280;15569;42.652;23.040;2023-07-31T06:12:36;92812.31;;;24.98
28305;BMP280;15569;42.652;23.040;2023-07-31T06:15:02;92810.97;;;24.93
28305;BMP280;15569;42.652;23.040;2023-07-31T06:17:28;92820.75;;;24.88
28305;BMP280;15569;42.652;23.040;2023-07-31T06:19:54;92821.53;;;24.82
28305;BMP280;15569;42.652;23.040;2023-07-31T06:22:19;92826.41;;;24.80
28305;BMP280;15569;42.652;23.040;2023-07-31T06:24:46;92824.72;;;24.32
28305;BMP280;15569;42.652;23.040;2023-07-31T06:27:11;92819.53;;;24.73
28305;BMP280;15569;42.652;23.040;2023-07-31T06:29:37;92818.97;;;24.58
28305;BMP280;15569;42.652;23.040;2023-07-31T06:32:04;92831.75;;;24.21
28305;BMP280;15569;42.652;23.040;2023-07-31T06:34:29;92823.28;;;24.41
28305;BMP280;15569;42.652;23.040;2023-07-31T06:36:56;92826.56;;;24.62
28305;BMP280;15569;42.652;23.040;2023-07-31T06:39:22;92817.91;;;24.17
28305;BMP280;15569;42.652;23.040;2023-07-31T06:41:47;92819.34;;;24.08
28305;BMP280;15569;42.652;23.040;2023-07-31T06:44:12;92827.50;;;24.32
28305;BMP280;15569;42.652;23.040;2023-07-31T06:46:38;92826.41;;;23.89
28305;BMP280;15569;42.652;23.040;2023-07-31T06:49:03;92822.16;;;23.98
28305;BMP280;15569;42.652;23.040;2023-07-31T06:51:29;92817.59;;;24.55
28305;BMP280;15569;42.652;23.040;2023-07-31T06:53:57;92821.16;;;24.44
28305;BMP280;15569;42.652;23.040;2023-07-31T06:56:22;92822.66;;;24.28
28305;BMP280;15569;42.652;23.040;2023-07-31T06:58:48;92814.78;;;24.57
28305;BMP280;15569;42.652;23.040;2023-07-31T07:01:13;92817.91;;;24.96
28305;BMP280;15569;42.652;23.040;2023-07-31T07:03:38;92811.44;;;25.15
28305;BMP280;15569;42.652;23.040;2023-07-31T07:06:04;92810.88;;;25.03
28305;BMP280;15569;42.652;23.040;2023-07-31T07:08:29;92810.63;;;25.27
28305;BMP280;15569;42.652;23.040;2023-07-31T07:10:54;92806.34;;;25.34
28305;BMP280;15569;42.652;23.040;2023-07-31T07:13:21;92807.09;;;25.30
28305;BMP280;15569;42.652;23.040;2023-07-31T07:15:50;92802.75;;;25.43
28305;BMP280;15569;42.652;23.040;2023-07-31T07:18:16;92808.44;;;25.31
28305;BMP280;15569;42.652;23.040;2023-07-31T07:20:51;92812.56;;;25.38
28305;BMP280;15569;42.652;23.040;2023-07-31T07:23:17;92810.47;;;25.39
28305;BMP280;15569;42.652;23.040;2023-07-31T07:25:43;92815.47;;;25.26
28305;BMP280;15569;42.652;23.040;2023-07-31T07:28:09;92812.38;;;25.52
28305;BMP280;15569;42.652;23.040;2023-07-31T07:30:35;92813.28;;;25.35
28305;BMP280;15569;42.652;23.040;2023-07-31T07:33:00;92816.44;;;25.03
28305;BMP280;15569;42.652;23.040;2023-07-31T07:35:25;92820.59;;;25.02
28305;BMP280;15569;42.652;23.040;2023-07-31T07:37:51;92822.78;;;24.93
28305;BMP280;15569;42.652;23.040;2023-07-31T07:40:16;92822.97;;;24.75
28305;BMP280;15569;42.652;23.040;2023-07-31T07:42:42;92816.84;;;24.63
28305;BMP280;15569;42.652;23.040;2023-07-31T07:45:08;92828.00;;;24.59
28305;BMP280;15569;42.652;23.040;2023-07-31T07:47:33;92835.22;;;24.23
28305;BMP280;15569;42.652;23.040;2023-07-31T07:49:59;92822.00;;;24.22
28305;BMP280;15569;42.652;23.040;2023-07-31T07:52:24;92823.75;;;24.64
28305;BMP280;15569;42.652;23.040;2023-07-31T07:54:49;92813.19;;;24.78
28305;BMP280;15569;42.652;23.040;2023-07-31T07:57:15;92814.50;;;24.87
28305;BMP280;15569;42.652;23.040;2023-07-31T07:59:41;92826.94;;;24.96
28305;BMP280;15569;42.652;23.040;2023-07-31T08:02:06;92825.22;;;25.25
28305;BMP280;15569;42.652;23.040;2023-07-31T08:04:32;92827.00;;;25.51
28305;BMP280;15569;42.652;23.040;2023-07-31T08:06:57;92823.63;;;25.40
28305;BMP280;15569;42.652;23.040;2023-07-31T08:09:22;92824.84;;;25.57
28305;BMP280;15569;42.652;23.040;2023-07-31T08:11:48;92813.28;;;25.90
28305;BMP280;15569;42.652;23.040;2023-07-31T08:14:13;92830.00;;;25.87
28305;BMP280;15569;42.652;23.040;2023-07-31T08:16:39;92826.63;;;25.81
28305;BMP280;15569;42.652;23.040;2023-07-31T08:19:04;92837.34;;;25.58
28305;BMP280;15569;42.652;23.040;2023-07-31T08:21:31;92834.00;;;25.50
28305;BMP280;15569;42.652;23.040;2023-07-31T08:23:56;92831.25;;;25.44
28305;BMP280;15569;42.652;23.040;2023-07-31T08:26:22;92831.31;;;25.42
28305;BMP280;15569;42.652;23.040;2023-07-31T08:28:47;92826.69;;;25.20
28305;BMP280;15569;42.652;23.040;2023-07-31T08:31:13;92828.81;;;25.16
28305;BMP280;15569;42.652;23.040;2023-07-31T08:33:39;92828.25;;;25.62
28305;BMP280;15569;42.652;23.040;2023-07-31T08:36:05;92818.19;;;25.87
28305;BMP280;15569;42.652;23.040;2023-07-31T08:38:31;92826.22;;;26.09
28305;BMP280;15569;42.652;23.040;2023-07-31T08:40:57;92811.72;;;26.01
28305;BMP280;15569;42.652;23.040;2023-07-31T08:43:25;92818.97;;;26.26
28305;BMP280;15569;42.652;23.040;2023-07-31T08:45:51;92821.50;;;25.98
28305;BMP280;15569;42.652;23.040;2023-07-31T08:48:17;92823.50;;;26.05
28305;BMP280;15569;42.652;23.040;2023-07-31T08:50:43;92818.69;;;26.00
28305;BMP280;15569;42.652;23.040;2023-07-31T08:53:08;92824.91;;;26.04
28305;BMP280;15569;42.652;23.040;2023-07-31T08:55:35;92819.13;;;26.18
28305;BMP280;15569;42.652;23.040;2023-07-31T08:58:03;92814.47;;;26.47
28305;BMP280;15569;42.652;23.040;2023-07-31T09:00:29;92819.56;;;26.75
28305;BMP280;15569;42.652;23.040;2023-07-31T09:02:59;92810.56;;;26.71
28305;BMP280;15569;42.652;23.040;2023-07-31T09:05:29;92824.84;;;26.91
28305;BMP280;15569;42.652;23.040;2023-07-31T09:07:56;92809.03;;;26.80
28305;BMP280;15569;42.652;23.040;2023-07-31T09:10:22;92807.28;;;26.99
28305;BMP280;15569;42.652;23.040;2023-07-31T09:12:49;92806.81;;;26.86
28305;BMP280;15569;42.652;23.040;2023-07-31T09:15:14;92812.56;;;27.15
28305;BMP280;15569;42.652;23.040;2023-07-31T09:17:40;92804.91;;;27.13
28305;BMP280;15569;42.652;23.040;2023-07-31T09:20:16;92810.31;;;27.23
28305;BMP280;15569;42.652;23.040;2023-07-31T09:22:43;92802.34;;;27.01
28305;BMP280;15569;42.652;23.040;2023-07-31T09:25:23;92810.50;;;26.75
28305;BMP280;15569;42.652;23.040;2023-07-31T09:27:51;92798.72;;;26.72
28305;BMP280;15569;42.652;23.040;2023-07-31T09:30:17;92798.94;;;26.60
28305;BMP280;15569;42.652;23.040;2023-07-31T09:32:44;92804.34;;;27.07
28305;BMP280;15569;42.652;23.040;2023-07-31T09:35:30;92790.94;;;27.48
28305;BMP280;15569;42.652;23.040;2023-07-31T09:38:01;92793.31;;;27.35
28305;BMP280;15569;42.652;23.040;2023-07-31T09:40:47;92794.97;;;27.55
28305;BMP280;15569;42.652;23.040;2023-07-31T09:43:18;92794.41;;;27.50
28305;BMP280;15569;42.652;23.040;2023-07-31T09:45:44;92801.94;;;27.56
28305;BMP280;15569;42.652;23.040;2023-07-31T09:48:12;92800.13;;;27.42
28305;BMP280;15569;42.652;23.040;2023-07-31T09:50:39;92796.88;;;27.64
28305;BMP280;15569;42.652;23.040;2023-07-31T09:53:05;92790.09;;;27.88
28305;BMP280;15569;42.652;23.040;2023-07-31T09:55:31;92802.91;;;27.44
28305;BMP280;15569;42.652;23.040;2023-07-31T09:57:59;92799.41;;;27.09
28305;BMP280;15569;42.652;23.040;2023-07-31T10:00:29;92792.97;;;26.82
28305;BMP280;15569;42.652;23.040;2023-07-31T10:02:58;92792.91;;;27.21
28305;BMP280;15569;42.652;23.040;2023-07-31T10:05:36;92792.91;;;27.21
28305;BMP280;15569;42.652;23.040;2023-07-31T10:08:01;92785.72;;;27.32
28305;BMP280;15569;42.652;23.040;2023-07-31T10:10:28;92795.13;;;27.14
28305;BMP280;15569;42.652;23.040;2023-07-31T10:12:54;92785.22;;;27.54
28305;BMP280;15569;42.652;23.040;2023-07-31T10:15:21;92775.75;;;27.41
28305;BMP280;15569;42.652;23.040;2023-07-31T10:17:48;92780.25;;;27.58
28305;BMP280;15569;42.652;23.040;2023-07-31T10:20:14;92786.03;;;27.48
28305;BMP280;15569;42.652;23.040;2023-07-31T10:22:42;92770.41;;;27.61
28305;BMP280;15569;42.652;23.040;2023-07-31T10:25:08;92789.97;;;27.92
28305;BMP280;15569;42.652;23.040;2023-07-31T10:27:36;92779.53;;;28.19
28305;BMP280;15569;42.652;23.040;2023-07-31T10:30:04;92786.66;;;27.84
28305;BMP280;15569;42.652;23.040;2023-07-31T10:32:31;92781.78;;;27.53
28305;BMP280;15569;42.652;23.040;2023-07-31T10:34:57;92775.81;;;27.70
28305;BMP280;15569;42.652;23.040;2023-07-31T10:37:25;92773.69;;;28.01
28305;BMP280;15569;42.652;23.040;2023-07-31T10:40:10;92769.69;;;27.94
28305;BMP280;15569;42.652;23.040;2023-07-31T10:42:57;92770.19;;;28.02
28305;BMP280;15569;42.652;23.040;2023-07-31T10:45:35;92761.13;;;28.30
28305;BMP280;15569;42.652;23.040;2023-07-31T10:48:04;92752.91;;;28.22
28305;BMP280;15569;42.652;23.040;2023-07-31T10:50:31;92751.63;;;27.89
28305;BMP280;15569;42.652;23.040;2023-07-31T10:53:00;92750.44;;;28.37
28305;BMP280;15569;42.652;23.040;2023-07-31T10:55:41;92758.88;;;28.35
28305;BMP280;15569;42.652;23.040;2023-07-31T10:58:08;92762.28;;;28.11
28305;BMP280;15569;42.652;23.040;2023-07-31T11:00:37;92759.69;;;28.58
28305;BMP280;15569;42.652;23.040;2023-07-31T11:03:09;92751.13;;;28.37
28305;BMP280;15569;42.652;23.040;2023-07-31T11:05:52;92748.81;;;28.46
28305;BMP280;15569;42.652;23.040;2023-07-31T11:10:45;92760.81;;;28.14
28305;BMP280;15569;42.652;23.040;2023-07-31T11:13:11;92767.94;;;27.45
28305;BMP280;15569;42.652;23.040;2023-07-31T11:15:37;92753.38;;;27.74
28305;BMP280;15569;42.652;23.040;2023-07-31T11:18:03;92761.50;;;28.14
28305;BMP280;15569;42.652;23.040;2023-07-31T11:20:36;92754.03;;;28.05
28305;BMP280;15569;42.652;23.040;2023-07-31T11:23:03;92783.56;;;27.34
28305;BMP280;15569;42.652;23.040;2023-07-31T11:25:33;92777.78;;;27.10
28305;BMP280;15569;42.652;23.040;2023-07-31T11:28:05;92766.53;;;27.46
28305;BMP280;15569;42.652;23.040;2023-07-31T11:30:31;92753.38;;;27.74
28305;BMP280;15569;42.652;23.040;2023-07-31T11:32:57;92753.13;;;28.14
28305;BMP280;15569;42.652;23.040;2023-07-31T11:35:22;92758.63;;;28.18
28305;BMP280;15569;42.652;23.040;2023-07-31T11:37:48;92759.66;;;28.84
28305;BMP280;15569;42.652;23.040;2023-07-31T11:40:14;92766.25;;;28.75
28305;BMP280;15569;42.652;23.040;2023-07-31T11:42:40;92767.50;;;28.27
28305;BMP280;15569;42.652;23.040;2023-07-31T11:45:07;92756.56;;;27.88
28305;BMP280;15569;42.652;23.040;2023-07-31T11:47:33;92760.69;;;27.91
28305;BMP280;15569;42.652;23.040;2023-07-31T11:50:06;92751.19;;;28.07
28305;BMP280;15569;42.652;23.040;2023-07-31T11:52:39;92747.16;;;27.71
28305;BMP280;15569;42.652;23.040;2023-07-31T11:55:07;92751.44;;;28.54
28305;BMP280;15569;42.652;23.040;2023-07-31T11:57:36;92747.97;;;28.78
28305;BMP280;15569;42.652;23.040;2023-07-31T12:00:02;92741.31;;;28.91
28305;BMP280;15569;42.652;23.040;2023-07-31T12:02:28;92733.66;;;28.90
28305;BMP280;15569;42.652;23.040;2023-07-31T12:04:54;92730.09;;;28.91
28305;BMP280;15569;42.652;23.040;2023-07-31T12:07:19;92732.50;;;29.05
28305;BMP280;15569;42.652;23.040;2023-07-31T12:09:54;92731.94;;;29.01
28305;BMP280;15569;42.652;23.040;2023-07-31T12:12:24;92734.59;;;29.29
28305;BMP280;15569;42.652;23.040;2023-07-31T12:14:50;92712.13;;;28.60
28305;BMP280;15569;42.652;23.040;2023-07-31T12:17:17;92737.09;;;28.13
28305;BMP280;15569;42.652;23.040;2023-07-31T12:19:44;92729.06;;;28.54
28305;BMP280;15569;42.652;23.040;2023-07-31T12:22:13;92717.41;;;28.45
28305;BMP280;15569;42.652;23.040;2023-07-31T12:24:40;92726.50;;;28.70
28305;BMP280;15569;42.652;23.040;2023-07-31T12:27:12;92715.91;;;28.75
28305;BMP280;15569;42.652;23.040;2023-07-31T12:29:38;92721.38;;;28.52
28305;BMP280;15569;42.652;23.040;2023-07-31T12:32:17;92719.28;;;28.26
28305;BMP280;15569;42.652;23.040;2023-07-31T12:34:43;92729.59;;;29.09
28305;BMP280;15569;42.652;23.040;2023-07-31T12:37:09;92722.44;;;29.84
28305;BMP280;15569;42.652;23.040;2023-07-31T12:39:34;92719.91;;;29.74
28305;BMP280;15569;42.652;23.040;2023-07-31T12:41:59;92714.84;;;30.42
28305;BMP280;15569;42.652;23.040;2023-07-31T12:44:25;92717.16;;;29.95
28305;BMP280;15569;42.652;23.040;2023-07-31T12:46:50;92702.75;;;29.41
28305;BMP280;15569;42.652;23.040;2023-07-31T12:49:15;92715.88;;;30.12
28305;BMP280;15569;42.652;23.040;2023-07-31T12:51:41;92724.66;;;30.23
28305;BMP280;15569;42.652;23.040;2023-07-31T12:54:06;92690.66;;;30.72
28305;BMP280;15569;42.652;23.040;2023-07-31T12:56:32;92694.72;;;30.95
28305;BMP280;15569;42.652;23.040;2023-07-31T12:58:57;92707.69;;;30.47
28305;BMP280;15569;42.652;23.040;2023-07-31T13:01:23;92696.44;;;30.06
28305;BMP280;15569;42.652;23.040;2023-07-31T13:03:48;92698.72;;;29.58
28305;BMP280;15569;42.652;23.040;2023-07-31T13:06:13;92702.03;;;29.86
28305;BMP280;15569;42.652;23.040;2023-07-31T13:08:39;92695.59;;;30.12
28305;BMP280;15569;42.652;23.040;2023-07-31T13:11:04;92695.59;;;29.46
28305;BMP280;15569;42.652;23.040;2023-07-31T13:13:30;92698.00;;;29.13
28305;BMP280;15569;42.652;23.040;2023-07-31T13:15:56;92693.66;;;29.18
28305;BMP280;15569;42.652;23.040;2023-07-31T13:18:21;92697.41;;;29.33
28305;BMP280;15569;42.652;23.040;2023-07-31T13:20:47;92699.03;;;29.48
28305;BMP280;15569;42.652;23.040;2023-07-31T13:23:12;92694.16;;;29.47
28305;BMP280;15569;42.652;23.040;2023-07-31T13:25:38;92702.22;;;29.79
28305;BMP280;15569;42.652;23.040;2023-07-31T13:28:03;92696.81;;;29.73
28305;BMP280;15569;42.652;23.040;2023-07-31T13:30:29;92703.69;;;29.99
28305;BMP280;15569;42.652;23.040;2023-07-31T13:32:54;92700.31;;;30.17
28305;BMP280;15569;42.652;23.040;2023-07-31T13:35:19;92691.69;;;29.37
28305;BMP280;15569;42.652;23.040;2023-07-31T13:37:45;92690.25;;;29.38
28305;BMP280;15569;42.652;23.040;2023-07-31T13:40:10;92695.59;;;29.68
28305;BMP280;15569;42.652;23.040;2023-07-31T13:42:36;92690.00;;;30.51
28305;BMP280;15569;42.652;23.040;2023-07-31T13:45:01;92684.59;;;30.65
28305;BMP280;15569;42.652;23.040;2023-07-31T13:47:27;92692.41;;;30.63
28305;BMP280;15569;42.652;23.040;2023-07-31T13:49:52;92685.72;;;30.72
28305;BMP280;15569;42.652;23.040;2023-07-31T13:52:17;92680.44;;;30.44
28305;BMP280;15569;42.652;23.040;2023-07-31T13:54:43;92686.31;;;30.56
28305;BMP280;15569;42.652;23.040;2023-07-31T13:57:08;92683.53;;;30.75
28305;BMP280;15569;42.652;23.040;2023-07-31T13:59:34;92683.31;;;30.81
28305;BMP280;15569;42.652;23.040;2023-07-31T14:01:59;92686.03;;;31.38